sensor_id;sensor_type;location;lat;lon;timestamp;pressure;altitude;pressure_sealevel;temperature
78961;BMP280;68362;45.970;12.646;2023-11-19T00:00:55;101821.66;;;5.03
78961;BMP280;68362;45.970;12.646;2023-11-19T00:02:17;101818.31;;;5.11
78961;BMP280;68362;45.970;12.646;2023-11-19T00:03:21;101807.81;;;5.20
78961;BMP280;68362;45.970;12.646;2023-11-19T00:04:23;101810.81;;;5.26
78961;BMP280;68362;45.970;12.646;2023-11-19T00:05:25;101809.44;;;5.21
78961;BMP280;68362;45.970;12.646;2023-11-19T00:06:27;101802.84;;;5.27
78961;BMP280;68362;45.970;12.646;2023-11-19T00:07:30;101804.53;;;5.18
78961;BMP280;68362;45.970;12.646;2023-11-19T00:08:36;101806.91;;;5.30
78961;BMP280;68362;45.970;12.646;2023-11-19T00:09:38;101800.69;;;5.22
78961;BMP280;68362;45.970;12.646;2023-11-19T00:10:41;101810.31;;;5.30
78961;BMP280;68362;45.970;12.646;2023-11-19T00:11:43;101804.81;;;5.33
78961;BMP280;68362;45.970;12.646;2023-11-19T00:12:55;101806.00;;;5.39
78961;BMP280;68362;45.970;12.646;2023-11-19T00:13:58;101807.34;;;5.43
78961;BMP280;68362;45.970;12.646;2023-11-19T00:15:01;101803.78;;;5.44
78961;BMP280;68362;45.970;12.646;2023-11-19T00:16:04;101801.09;;;5.36
78961;BMP280;68362;45.970;12.646;2023-11-19T00:17:06;101799.25;;;5.28
78961;BMP280;68362;45.970;12.646;2023-11-19T00:18:08;101786.56;;;5.07
78961;BMP280;68362;45.970;12.646;2023-11-19T00:19:10;101788.78;;;4.84
78961;BMP280;68362;45.970;12.646;2023-11-19T00:20:18;101797.84;;;4.98
78961;BMP280;68362;45.970;12.646;2023-11-19T00:21:21;101797.44;;;5.03
78961;BMP280;68362;45.970;12.646;2023-11-19T00:22:23;101802.78;;;4.83
78961;BMP280;68362;45.970;12.646;2023-11-19T00:23:28;101814.50;;;4.87
78961;BMP280;68362;45.970;12.646;2023-11-19T00:24:30;101799.50;;;4.99
78961;BMP280;68362;45.970;12.646;2023-11-19T00:25:33;101806.78;;;4.95
78961;BMP280;68362;45.970;12.646;2023-11-19T00:26:35;101813.72;;;5.05
78961;BMP280;68362;45.970;12.646;2023-11-19T00:27:37;101808.81;;;4.84
78961;BMP280;68362;45.970;12.646;2023-11-19T00:28:40;101809.84;;;4.73
78961;BMP280;68362;45.970;12.646;2023-11-19T00:29:42;101806.38;;;4.55
78961;BMP280;68362;45.970;12.646;2023-11-19T00:30:44;101810.41;;;4.49
78961;BMP280;68362;45.970;12.646;2023-11-19T00:31:46;101812.13;;;4.31
78961;BMP280;68362;45.970;12.646;2023-11-19T00:32:49;101809.34;;;4.60
78961;BMP280;68362;45.970;12.646;2023-11-19T00:33:51;101812.94;;;4.77
78961;BMP280;68362;45.970;12.646;2023-11-19T00:34:53;101812.94;;;4.77
78961;BMP280;68362;45.970;12.646;2023-11-19T00:35:55;101816.81;;;4.90
78961;BMP280;68362;45.970;12.646;2023-11-19T00:36:58;101804.84;;;4.80
78961;BMP280;68362;45.970;12.646;2023-11-19T00:38:00;101811.91;;;4.69
78961;BMP280;68362;45.970;12.646;2023-11-19T00:39:02;101813.09;;;4.75
78961;BMP280;68362;45.970;12.646;2023-11-19T00:40:05;101811.41;;;4.84
78961;BMP280;68362;45.970;12.646;2023-11-19T00:41:08;101817.34;;;4.94
78961;BMP280;68362;45.970;12.646;2023-11-19T00:42:10;101807.75;;;4.94
78961;BMP280;68362;45.970;12.646;2023-11-19T00:43:12;101799.72;;;4.88
78961;BMP280;68362;45.970;12.646;2023-11-19T00:44:15;101789.09;;;4.99
78961;BMP280;68362;45.970;12.646;2023-11-19T00:45:17;101785.38;;;4.66
78961;BMP280;68362;45.970;12.646;2023-11-19T00:46:19;101788.00;;;4.38
78961;BMP280;68362;45.970;12.646;2023-11-19T00:47:21;101783.63;;;4.11
78961;BMP280;68362;45.970;12.646;2023-11-19T00:48:24;101781.59;;;4.05
78961;BMP280;68362;45.970;12.646;2023-11-19T00:49:26;101786.91;;;4.13
78961;BMP280;68362;45.970;12.646;2023-11-19T00:50:28;101788.44;;;4.34
78961;BMP280;68362;45.970;12.646;2023-11-19T00:51:31;101797.22;;;4.51
78961;BMP280;68362;45.970;12.646;2023-11-19T00:52:33;101800.06;;;4.30
78961;BMP280;68362;45.970;12.646;2023-11-19T00:53:36;101802.00;;;4.28
78961;BMP280;68362;45.970;12.646;2023-11-19T00:54:38;101803.09;;;4.53
78961;BMP280;68362;45.970;12.646;2023-11-19T00:55:40;101802.81;;;4.56
78961;BMP280;68362;45.970;12.646;2023-11-19T00:56:45;101796.88;;;4.63
78961;BMP280;68362;45.970;12.646;2023-11-19T00:57:47;101806.03;;;4.40
78961;BMP280;68362;45.970;12.646;2023-11-19T00:58:49;101797.44;;;4.39
78961;BMP280;68362;45.970;12.646;2023-11-19T00:59:51;101800.84;;;4.12
78961;BMP280;68362;45.970;12.646;2023-11-19T01:00:53;101799.59;;;4.44
78961;BMP280;68362;45.970;12.646;2023-11-19T01:01:56;101796.13;;;4.53
78961;BMP280;68362;45.970;12.646;2023-11-19T01:02:58;101795.66;;;4.40
78961;BMP280;68362;45.970;12.646;2023-11-19T01:04:02;101800.41;;;4.44
78961;BMP280;68362;45.970;12.646;2023-11-19T01:05:07;101795.75;;;4.48
78961;BMP280;68362;45.970;12.646;2023-11-19T01:06:10;101788.91;;;4.47
78961;BMP280;68362;45.970;12.646;2023-11-19T01:07:12;101789.13;;;4.54
78961;BMP280;68362;45.970;12.646;2023-11-19T01:08:15;101777.63;;;4.56
78961;BMP280;68362;45.970;12.646;2023-11-19T01:09:17;101773.41;;;4.55
78961;BMP280;68362;45.970;12.646;2023-11-19T01:10:20;101760.69;;;4.52
78961;BMP280;68362;45.970;12.646;2023-11-19T01:11:23;101760.53;;;4.54
78961;BMP280;68362;45.970;12.646;2023-11-19T01:12:25;101760.53;;;4.36
78961;BMP280;68362;45.970;12.646;2023-11-19T01:13:27;101760.94;;;4.59
78961;BMP280;68362;45.970;12.646;2023-11-19T01:14:30;101766.34;;;4.65
78961;BMP280;68362;45.970;12.646;2023-11-19T01:15:32;101774.81;;;4.67
78961;BMP280;68362;45.970;12.646;2023-11-19T01:16:34;101780.03;;;4.67
78961;BMP280;68362;45.970;12.646;2023-11-19T01:17:37;101769.50;;;4.69
78961;BMP280;68362;45.970;12.646;2023-11-19T01:18:40;101769.34;;;4.70
78961;BMP280;68362;45.970;12.646;2023-11-19T01:19:42;101763.41;;;4.60
78961;BMP280;68362;45.970;12.646;2023-11-19T01:20:44;101767.66;;;4.34
78961;BMP280;68362;45.970;12.646;2023-11-19T01:21:46;101771.41;;;4.49
78961;BMP280;68362;45.970;12.646;2023-11-19T01:22:49;101776.97;;;3.99
78961;BMP280;68362;45.970;12.646;2023-11-19T01:23:52;101777.91;;;3.98
78961;BMP280;68362;45.970;12.646;2023-11-19T01:24:54;101781.22;;;4.00
78961;BMP280;68362;45.970;12.646;2023-11-19T01:25:56;101776.28;;;3.50
78961;BMP280;68362;45.970;12.646;2023-11-19T01:26:58;101776.91;;;3.71
78961;BMP280;68362;45.970;12.646;2023-11-19T01:28:02;101775.03;;;3.44
78961;BMP280;68362;45.970;12.646;2023-11-19T01:29:04;101774.94;;;3.17
78961;BMP280;68362;45.970;12.646;2023-11-19T01:30:07;101774.25;;;3.24
78961;BMP280;68362;45.970;12.646;2023-11-19T01:31:15;101774.50;;;3.60
78961;BMP280;68362;45.970;12.646;2023-11-19T01:32:18;101765.69;;;3.81
78961;BMP280;68362;45.970;12.646;2023-11-19T01:33:19;101760.47;;;3.90
78961;BMP280;68362;45.970;12.646;2023-11-19T01:34:23;101750.88;;;3.91
78961;BMP280;68362;45.970;12.646;2023-11-19T01:35:25;101749.41;;;3.79
78961;BMP280;68362;45.970;12.646;2023-11-19T01:36:29;101746.59;;;3.62
78961;BMP280;68362;45.970;12.646;2023-11-19T01:37:31;101744.00;;;3.62
78961;BMP280;68362;45.970;12.646;2023-11-19T01:38:39;101733.50;;;3.64
78961;BMP280;68362;45.970;12.646;2023-11-19T01:39:44;101735.66;;;3.68
78961;BMP280;68362;45.970;12.646;2023-11-19T01:41:00;101734.75;;;3.97
78961;BMP280;68362;45.970;12.646;2023-11-19T01:42:05;101731.84;;;4.00
78961;BMP280;68362;45.970;12.646;2023-11-19T01:43:07;101732.69;;;4.18
78961;BMP280;68362;45.970;12.646;2023-11-19T01:44:14;101725.56;;;3.75
78961;BMP280;68362;45.970;12.646;2023-11-19T01:45:22;101727.13;;;3.86
78961;BMP280;68362;45.970;12.646;2023-11-19T01:46:29;101734.81;;;4.05
78961;BMP280;68362;45.970;12.646;2023-11-19T01:47:32;101728.78;;;4.14
78961;BMP280;68362;45.970;12.646;2023-11-19T01:48:38;101733.47;;;4.29
78961;BMP280;68362;45.970;12.646;2023-11-19T01:49:43;101727.63;;;4.27
78961;BMP280;68362;45.970;12.646;2023-11-19T01:50:45;101727.78;;;4.25
78961;BMP280;68362;45.970;12.646;2023-11-19T01:51:47;101730.25;;;4.17
78961;BMP280;68362;45.970;12.646;2023-11-19T01:52:53;101726.13;;;4.24
78961;BMP280;68362;45.970;12.646;2023-11-19T01:53:56;101721.81;;;4.33
78961;BMP280;68362;45.970;12.646;2023-11-19T01:54:59;101716.06;;;4.39
78961;BMP280;68362;45.970;12.646;2023-11-19T01:56:02;101723.53;;;4.42
78961;BMP280;68362;45.970;12.646;2023-11-19T01:57:05;101728.44;;;4.45
78961;BMP280;68362;45.970;12.646;2023-11-19T01:58:08;101725.28;;;4.51
78961;BMP280;68362;45.970;12.646;2023-11-19T01:59:11;101727.84;;;4.33
78961;BMP280;68362;45.970;12.646;2023-11-19T02:00:15;101728.28;;;4.29
78961;BMP280;68362;45.970;12.646;2023-11-19T02:01:18;101728.25;;;4.38
78961;BMP280;68362;45.970;12.646;2023-11-19T02:02:21;101733.03;;;4.33
78961;BMP280;68362;45.970;12.646;2023-11-19T02:03:24;101731.00;;;4.37
78961;BMP280;68362;45.970;12.646;2023-11-19T02:04:28;101722.19;;;4.20
78961;BMP280;68362;45.970;12.646;2023-11-19T02:05:31;101725.03;;;4.27
78961;BMP280;68362;45.970;12.646;2023-11-19T02:06:34;101726.09;;;4.34
78961;BMP280;68362;45.970;12.646;2023-11-19T02:07:38;101725.47;;;4.40
78961;BMP280;68362;45.970;12.646;2023-11-19T02:08:43;101716.91;;;4.30
78961;BMP280;68362;45.970;12.646;2023-11-19T02:09:48;101710.50;;;4.34
78961;BMP280;68362;45.970;12.646;2023-11-19T02:10:50;101711.16;;;4.36
78961;BMP280;68362;45.970;12.646;2023-11-19T02:11:53;101701.72;;;4.35
78961;BMP280;68362;45.970;12.646;2023-11-19T02:12:56;101697.09;;;4.29
78961;BMP280;68362;45.970;12.646;2023-11-19T02:14:07;101699.19;;;4.25
78961;BMP280;68362;45.970;12.646;2023-11-19T02:15:10;101690.03;;;4.21
78961;BMP280;68362;45.970;12.646;2023-11-19T02:16:12;101693.97;;;4.07
78961;BMP280;68362;45.970;12.646;2023-11-19T02:18:30;101699.16;;;4.07
78961;BMP280;68362;45.970;12.646;2023-11-19T02:19:32;101692.00;;;4.09
78961;BMP280;68362;45.970;12.646;2023-11-19T02:20:35;101690.19;;;4.19
78961;BMP280;68362;45.970;12.646;2023-11-19T02:21:37;101691.81;;;4.03
78961;BMP280;68362;45.970;12.646;2023-11-19T02:22:40;101691.41;;;4.15
78961;BMP280;68362;45.970;12.646;2023-11-19T02:23:42;101688.66;;;4.27
78961;BMP280;68362;45.970;12.646;2023-11-19T02:24:46;101685.44;;;4.33
78961;BMP280;68362;45.970;12.646;2023-11-19T02:26:05;101675.09;;;4.05
78961;BMP280;68362;45.970;12.646;2023-11-19T02:27:17;101664.06;;;4.21
78961;BMP280;68362;45.970;12.646;2023-11-19T02:28:23;101659.19;;;4.36
78961;BMP280;68362;45.970;12.646;2023-11-19T02:29:25;101657.69;;;4.33
78961;BMP280;68362;45.970;12.646;2023-11-19T02:30:27;101655.00;;;4.07
78961;BMP280;68362;45.970;12.646;2023-11-19T02:31:31;101659.09;;;4.28
78961;BMP280;68362;45.970;12.646;2023-11-19T02:32:33;101655.19;;;3.96
78961;BMP280;68362;45.970;12.646;2023-11-19T02:33:36;101653.19;;;3.80
78961;BMP280;68362;45.970;12.646;2023-11-19T02:34:38;101652.97;;;4.01
78961;BMP280;68362;45.970;12.646;2023-11-19T02:35:40;101659.66;;;4.21
78961;BMP280;68362;45.970;12.646;2023-11-19T02:36:42;101660.16;;;4.35
78961;BMP280;68362;45.970;12.646;2023-11-19T02:37:45;101666.06;;;4.45
78961;BMP280;68362;45.970;12.646;2023-11-19T02:38:47;101654.03;;;4.44
78961;BMP280;68362;45.970;12.646;2023-11-19T02:39:49;101660.22;;;4.43
78961;BMP280;68362;45.970;12.646;2023-11-19T02:40:51;101659.25;;;4.26
78961;BMP280;68362;45.970;12.646;2023-11-19T02:41:53;101655.66;;;4.09
78961;BMP280;68362;45.970;12.646;2023-11-19T02:42:55;101666.66;;;4.03
78961;BMP280;68362;45.970;12.646;2023-11-19T02:43:58;101655.94;;;4.06
78961;BMP280;68362;45.970;12.646;2023-11-19T02:45:00;101657.59;;;3.80
78961;BMP280;68362;45.970;12.646;2023-11-19T02:46:03;101658.13;;;3.83
78961;BMP280;68362;45.970;12.646;2023-11-19T02:47:12;101664.94;;;4.12
78961;BMP280;68362;45.970;12.646;2023-11-19T02:48:14;101666.03;;;4.27
78961;BMP280;68362;45.970;12.646;2023-11-19T02:49:17;101656.91;;;3.87
78961;BMP280;68362;45.970;12.646;2023-11-19T02:50:20;101667.41;;;4.13
78961;BMP280;68362;45.970;12.646;2023-11-19T02:51:27;101659.91;;;3.83
78961;BMP280;68362;45.970;12.646;2023-11-19T02:52:30;101669.53;;;3.72
78961;BMP280;68362;45.970;12.646;2023-11-19T02:53:37;101669.97;;;3.95
78961;BMP280;68362;45.970;12.646;2023-11-19T02:54:39;101659.31;;;4.16
78961;BMP280;68362;45.970;12.646;2023-11-19T02:55:41;101662.50;;;4.28
78961;BMP280;68362;45.970;12.646;2023-11-19T02:56:50;101661.94;;;4.07
78961;BMP280;68362;45.970;12.646;2023-11-19T02:57:57;101661.97;;;4.24
78961;BMP280;68362;45.970;12.646;2023-11-19T02:59:01;101661.25;;;4.32
78961;BMP280;68362;45.970;12.646;2023-11-19T03:00:19;101659.69;;;4.39
78961;BMP280;68362;45.970;12.646;2023-11-19T03:01:25;101645.97;;;4.47
78961;BMP280;68362;45.970;12.646;2023-11-19T03:02:35;101643.84;;;4.51
78961;BMP280;68362;45.970;12.646;2023-11-19T03:03:46;101645.81;;;4.31
78961;BMP280;68362;45.970;12.646;2023-11-19T03:04:51;101654.03;;;4.44
78961;BMP280;68362;45.970;12.646;2023-11-19T03:05:53;101646.44;;;4.51
78961;BMP280;68362;45.970;12.646;2023-11-19T03:06:55;101653.25;;;4.61
78961;BMP280;68362;45.970;12.646;2023-11-19T03:07:58;101649.22;;;4.67
78961;BMP280;68362;45.970;12.646;2023-11-19T03:09:00;101650.03;;;4.67
78961;BMP280;68362;45.970;12.646;2023-11-19T03:10:08;101637.31;;;4.64
78961;BMP280;68362;45.970;12.646;2023-11-19T03:11:10;101639.13;;;4.46
78961;BMP280;68362;45.970;12.646;2023-11-19T03:12:13;101631.94;;;4.22
78961;BMP280;68362;45.970;12.646;2023-11-19T03:13:15;101622.97;;;4.07
78961;BMP280;68362;45.970;12.646;2023-11-19T03:14:17;101628.56;;;4.30
78961;BMP280;68362;45.970;12.646;2023-11-19T03:15:20;101621.59;;;4.30
78961;BMP280;68362;45.970;12.646;2023-11-19T03:16:22;101626.59;;;4.23
78961;BMP280;68362;45.970;12.646;2023-11-19T03:17:25;101630.47;;;4.37
78961;BMP280;68362;45.970;12.646;2023-11-19T03:18:27;101627.16;;;4.53
78961;BMP280;68362;45.970;12.646;2023-11-19T03:19:30;101625.47;;;4.62
78961;BMP280;68362;45.970;12.646;2023-11-19T03:20:32;101610.59;;;4.72
78961;BMP280;68362;45.970;12.646;2023-11-19T03:21:34;101599.66;;;4.68
78961;BMP280;68362;45.970;12.646;2023-11-19T03:22:37;101597.34;;;4.65
78961;BMP280;68362;45.970;12.646;2023-11-19T03:23:39;101608.91;;;4.45
78961;BMP280;68362;45.970;12.646;2023-11-19T03:24:42;101605.16;;;4.65
78961;BMP280;68362;45.970;12.646;2023-11-19T03:25:44;101621.47;;;4.76
78961;BMP280;68362;45.970;12.646;2023-11-19T03:26:49;101626.22;;;4.80
78961;BMP280;68362;45.970;12.646;2023-11-19T03:27:54;101633.81;;;4.73
78961;BMP280;68362;45.970;12.646;2023-11-19T03:28:56;101640.81;;;4.55
78961;BMP280;68362;45.970;12.646;2023-11-19T03:30:02;101632.78;;;4.66
78961;BMP280;68362;45.970;12.646;2023-11-19T03:31:06;101629.81;;;4.79
78961;BMP280;68362;45.970;12.646;2023-11-19T03:32:11;101632.56;;;4.42
78961;BMP280;68362;45.970;12.646;2023-11-19T03:33:14;101633.94;;;4.10
78961;BMP280;68362;45.970;12.646;2023-11-19T03:34:16;101647.38;;;4.23
78961;BMP280;68362;45.970;12.646;2023-11-19T03:35:19;101646.25;;;4.44
78961;BMP280;68362;45.970;12.646;2023-11-19T03:36:21;101648.56;;;4.47
78961;BMP280;68362;45.970;12.646;2023-11-19T03:37:24;101646.53;;;4.59
78961;BMP280;68362;45.970;12.646;2023-11-19T03:38:27;101640.31;;;4.69
78961;BMP280;68362;45.970;12.646;2023-11-19T03:39:29;101629.97;;;4.78
78961;BMP280;68362;45.970;12.646;2023-11-19T03:40:31;101614.66;;;4.75
78961;BMP280;68362;45.970;12.646;2023-11-19T03:41:33;101620.88;;;4.82
78961;BMP280;68362;45.970;12.646;2023-11-19T03:42:38;101616.69;;;4.89
78961;BMP280;68362;45.970;12.646;2023-11-19T03:43:42;101619.66;;;4.94
78961;BMP280;68362;45.970;12.646;2023-11-19T03:44:44;101618.03;;;4.93
78961;BMP280;68362;45.970;12.646;2023-11-19T03:45:47;101614.94;;;4.97
78961;BMP280;68362;45.970;12.646;2023-11-19T03:46:49;101614.34;;;5.04
78961;BMP280;68362;45.970;12.646;2023-11-19T03:47:52;101616.38;;;4.92
78961;BMP280;68362;45.970;12.646;2023-11-19T03:48:54;101618.88;;;4.76
78961;BMP280;68362;45.970;12.646;2023-11-19T03:49:56;101608.53;;;4.58
78961;BMP280;68362;45.970;12.646;2023-11-19T03:50:59;101608.81;;;4.55
78961;BMP280;68362;45.970;12.646;2023-11-19T03:52:01;101593.63;;;4.68
78961;BMP280;68362;45.970;12.646;2023-11-19T03:53:03;101593.00;;;4.74
78961;BMP280;68362;45.970;12.646;2023-11-19T03:54:06;101594.44;;;4.68
78961;BMP280;68362;45.970;12.646;2023-11-19T03:55:08;101600.81;;;4.30
78961;BMP280;68362;45.970;12.646;2023-11-19T03:56:11;101603.09;;;4.33
78961;BMP280;68362;45.970;12.646;2023-11-19T03:57:13;101602.88;;;4.44
78961;BMP280;68362;45.970;12.646;2023-11-19T03:58:17;101595.66;;;4.56
78961;BMP280;68362;45.970;12.646;2023-11-19T03:59:19;101590.09;;;4.69
78961;BMP280;68362;45.970;12.646;2023-11-19T04:00:22;101582.47;;;4.32
78961;BMP280;68362;45.970;12.646;2023-11-19T04:01:24;101580.41;;;4.17
78961;BMP280;68362;45.970;12.646;2023-11-19T04:02:26;101581.47;;;3.79
78961;BMP280;68362;45.970;12.646;2023-11-19T04:03:29;101584.47;;;3.84
78961;BMP280;68362;45.970;12.646;2023-11-19T04:04:32;101587.38;;;3.99
78961;BMP280;68362;45.970;12.646;2023-11-19T04:05:34;101590.22;;;4.23
78961;BMP280;68362;45.970;12.646;2023-11-19T04:06:36;101587.53;;;4.33
78961;BMP280;68362;45.970;12.646;2023-11-19T04:07:38;101600.09;;;4.20
78961;BMP280;68362;45.970;12.646;2023-11-19T04:08:41;101600.38;;;4.35
78961;BMP280;68362;45.970;12.646;2023-11-19T04:09:43;101597.25;;;4.49
78961;BMP280;68362;45.970;12.646;2023-11-19T04:10:45;101603.84;;;4.61
78961;BMP280;68362;45.970;12.646;2023-11-19T04:11:47;101595.28;;;4.69
78961;BMP280;68362;45.970;12.646;2023-11-19T04:12:50;101607.81;;;4.73
78961;BMP280;68362;45.970;12.646;2023-11-19T04:13:52;101609.88;;;4.26
78961;BMP280;68362;45.970;12.646;2023-11-19T04:14:54;101616.09;;;4.33
78961;BMP280;68362;45.970;12.646;2023-11-19T04:16:00;101628.72;;;4.28
78961;BMP280;68362;45.970;12.646;2023-11-19T04:17:02;101635.41;;;4.31
78961;BMP280;68362;45.970;12.646;2023-11-19T04:18:04;101630.94;;;4.41
78961;BMP280;68362;45.970;12.646;2023-11-19T04:19:07;101636.75;;;4.53
78961;BMP280;68362;45.970;12.646;2023-11-19T04:20:09;101633.47;;;4.51
78961;BMP280;68362;45.970;12.646;2023-11-19T04:21:15;101624.56;;;4.53
78961;BMP280;68362;45.970;12.646;2023-11-19T04:22:17;101618.56;;;4.17
78961;BMP280;68362;45.970;12.646;2023-11-19T04:23:20;101611.94;;;3.87
78961;BMP280;68362;45.970;12.646;2023-11-19T04:24:22;101606.69;;;3.69
78961;BMP280;68362;45.970;12.646;2023-11-19T04:25:24;101601.97;;;3.82
78961;BMP280;68362;45.970;12.646;2023-11-19T04:26:28;101599.25;;;3.84
78961;BMP280;68362;45.970;12.646;2023-11-19T04:27:30;101602.31;;;3.69
78961;BMP280;68362;45.970;12.646;2023-11-19T04:28:31;101598.03;;;3.50
78961;BMP280;68362;45.970;12.646;2023-11-19T04:29:34;101611.31;;;3.65
78961;BMP280;68362;45.970;12.646;2023-11-19T04:30:36;101612.22;;;3.84
78961;BMP280;68362;45.970;12.646;2023-11-19T04:31:39;101614.31;;;3.98
78961;BMP280;68362;45.970;12.646;2023-11-19T04:32:42;101624.44;;;4.19
78961;BMP280;68362;45.970;12.646;2023-11-19T04:33:44;101619.47;;;4.26
78961;BMP280;68362;45.970;12.646;2023-11-19T04:34:46;101615.66;;;4.20
78961;BMP280;68362;45.970;12.646;2023-11-19T04:35:48;101612.97;;;4.30
78961;BMP280;68362;45.970;12.646;2023-11-19T04:36:50;101606.16;;;3.93
78961;BMP280;68362;45.970;12.646;2023-11-19T04:37:53;101593.00;;;3.77
78961;BMP280;68362;45.970;12.646;2023-11-19T04:38:55;101595.44;;;3.50
78961;BMP280;68362;45.970;12.646;2023-11-19T04:39:57;101585.44;;;3.56
78961;BMP280;68362;45.970;12.646;2023-11-19T04:40:59;101588.03;;;3.28
78961;BMP280;68362;45.970;12.646;2023-11-19T04:42:03;101579.28;;;3.29
78961;BMP280;68362;45.970;12.646;2023-11-19T04:43:06;101582.88;;;3.18
78961;BMP280;68362;45.970;12.646;2023-11-19T04:44:09;101589.06;;;3.08
78961;BMP280;68362;45.970;12.646;2023-11-19T04:45:11;101589.72;;;3.10
78961;BMP280;68362;45.970;12.646;2023-11-19T04:46:13;101582.81;;;3.38
78961;BMP280;68362;45.970;12.646;2023-11-19T04:47:15;101595.75;;;3.65
78961;BMP280;68362;45.970;12.646;2023-11-19T04:48:18;101586.38;;;3.82
78961;BMP280;68362;45.970;12.646;2023-11-19T04:49:20;101596.41;;;3.95
78961;BMP280;68362;45.970;12.646;2023-11-19T04:50:22;101588.72;;;4.03
78961;BMP280;68362;45.970;12.646;2023-11-19T04:51:24;101580.63;;;4.06
78961;BMP280;68362;45.970;12.646;2023-11-19T04:52:26;101570.31;;;4.14
78961;BMP280;68362;45.970;12.646;2023-11-19T04:53:28;101577.22;;;4.23
78961;BMP280;68362;45.970;12.646;2023-11-19T04:54:31;101569.63;;;4.30
78961;BMP280;68362;45.970;12.646;2023-11-19T04:55:33;101574.53;;;4.33
78961;BMP280;68362;45.970;12.646;2023-11-19T04:56:36;101573.81;;;4.23
78961;BMP280;68362;45.970;12.646;2023-11-19T04:57:40;101566.44;;;4.18
78961;BMP280;68362;45.970;12.646;2023-11-19T04:58:42;101572.22;;;4.30
78961;BMP280;68362;45.970;12.646;2023-11-19T04:59:45;101574.81;;;4.30
78961;BMP280;68362;45.970;12.646;2023-11-19T05:00:47;101576.19;;;4.34
78961;BMP280;68362;45.970;12.646;2023-11-19T05:01:49;101585.81;;;4.24
78961;BMP280;68362;45.970;12.646;2023-11-19T05:02:52;101591.97;;;4.05
78961;BMP280;68362;45.970;12.646;2023-11-19T05:03:56;101587.19;;;4.10
78961;BMP280;68362;45.970;12.646;2023-11-19T05:05:01;101589.19;;;3.98
78961;BMP280;68362;45.970;12.646;2023-11-19T05:06:06;101578.63;;;4.00
78961;BMP280;68362;45.970;12.646;2023-11-19T05:07:08;101583.75;;;4.10
78961;BMP280;68362;45.970;12.646;2023-11-19T05:08:10;101577.53;;;4.03
78961;BMP280;68362;45.970;12.646;2023-11-19T05:09:13;101584.13;;;3.97
78961;BMP280;68362;45.970;12.646;2023-11-19T05:10:15;101578.47;;;3.84
78961;BMP280;68362;45.970;12.646;2023-11-19T05:11:18;101578.88;;;3.61
78961;BMP280;68362;45.970;12.646;2023-11-19T05:12:21;101571.63;;;3.83
78961;BMP280;68362;45.970;12.646;2023-11-19T05:13:24;101575.19;;;3.82
78961;BMP280;68362;45.970;12.646;2023-11-19T05:14:26;101576.59;;;3.76
78961;BMP280;68362;45.970;12.646;2023-11-19T05:15:29;101571.88;;;3.89
78961;BMP280;68362;45.970;12.646;2023-11-19T05:16:31;101564.44;;;3.77
78961;BMP280;68362;45.970;12.646;2023-11-19T05:17:33;101575.50;;;3.96
78961;BMP280;68362;45.970;12.646;2023-11-19T05:18:36;101576.75;;;3.92
78961;BMP280;68362;45.970;12.646;2023-11-19T05:19:39;101578.19;;;3.87
78961;BMP280;68362;45.970;12.646;2023-11-19T05:20:45;101564.03;;;3.99
78961;BMP280;68362;45.970;12.646;2023-11-19T05:21:47;101564.53;;;4.03
78961;BMP280;68362;45.970;12.646;2023-11-19T05:22:49;101553.41;;;4.10
78961;BMP280;68362;45.970;12.646;2023-11-19T05:23:54;101556.06;;;4.01
78961;BMP280;68362;45.970;12.646;2023-11-19T05:24:56;101547.97;;;4.04
78961;BMP280;68362;45.970;12.646;2023-11-19T05:25:58;101551.03;;;3.99
78961;BMP280;68362;45.970;12.646;2023-11-19T05:27:00;101554.88;;;3.95
78961;BMP280;68362;45.970;12.646;2023-11-19T05:28:03;101549.38;;;3.98
78961;BMP280;68362;45.970;12.646;2023-11-19T05:29:05;101558.00;;;3.81
78961;BMP280;68362;45.970;12.646;2023-11-19T05:30:07;101570.72;;;3.74
78961;BMP280;68362;45.970;12.646;2023-11-19T05:31:10;101575.94;;;3.92
78961;BMP280;68362;45.970;12.646;2023-11-19T05:32:12;101580.53;;;3.98
78961;BMP280;68362;45.970;12.646;2023-11-19T05:33:14;101578.91;;;3.97
78961;BMP280;68362;45.970;12.646;2023-11-19T05:34:16;101583.13;;;3.98
78961;BMP280;68362;45.970;12.646;2023-11-19T05:35:18;101572.91;;;3.96
78961;BMP280;68362;45.970;12.646;2023-11-19T05:36:21;101568.53;;;3.97
78961;BMP280;68362;45.970;12.646;2023-11-19T05:37:23;101562.44;;;4.06
78961;BMP280;68362;45.970;12.646;2023-11-19T05:38:25;101560.59;;;3.81
78961;BMP280;68362;45.970;12.646;2023-11-19T05:39:28;101567.72;;;3.51
78961;BMP280;68362;45.970;12.646;2023-11-19T05:40:30;101567.34;;;3.46
78961;BMP280;68362;45.970;12.646;2023-11-19T05:41:32;101564.53;;;3.30
78961;BMP280;68362;45.970;12.646;2023-11-19T05:42:34;101561.81;;;3.31
78961;BMP280;68362;45.970;12.646;2023-11-19T05:43:39;101566.81;;;3.05
78961;BMP280;68362;45.970;12.646;2023-11-19T05:44:42;101557.84;;;3.37
78961;BMP280;68362;45.970;12.646;2023-11-19T05:45:44;101555.13;;;3.56
78961;BMP280;68362;45.970;12.646;2023-11-19T05:46:46;101553.19;;;3.58
78961;BMP280;68362;45.970;12.646;2023-11-19T05:47:49;101559.41;;;3.47
78961;BMP280;68362;45.970;12.646;2023-11-19T05:48:51;101556.97;;;3.46
78961;BMP280;68362;45.970;12.646;2023-11-19T05:49:54;101560.13;;;3.40
78961;BMP280;68362;45.970;12.646;2023-11-19T05:50:56;101554.75;;;3.23
78961;BMP280;68362;45.970;12.646;2023-11-19T05:51:58;101548.69;;;3.33
78961;BMP280;68362;45.970;12.646;2023-11-19T05:53:00;101550.16;;;3.08
78961;BMP280;68362;45.970;12.646;2023-11-19T05:54:03;101548.69;;;2.86
78961;BMP280;68362;45.970;12.646;2023-11-19T05:55:05;101542.75;;;2.75
78961;BMP280;68362;45.970;12.646;2023-11-19T05:56:11;101547.38;;;2.62
78961;BMP280;68362;45.970;12.646;2023-11-19T05:57:14;101545.34;;;2.66
78961;BMP280;68362;45.970;12.646;2023-11-19T05:58:16;101546.72;;;3.07
78961;BMP280;68362;45.970;12.646;2023-11-19T05:59:18;101544.06;;;3.26
78961;BMP280;68362;45.970;12.646;2023-11-19T06:00:20;101544.31;;;3.33